Terminal Aerodrome Forecast
Issued by NWS

Home | Current Version | Previous Version | Text Only | Print | Product List | Glossary On
Versions: 1 2 3 4 5 6 7 8 9 10 11 12 13 14
000
FTUS46 KMTR 232300
TAFOAK
TAF
KOAK 232320Z 2400/2506 30009KT P6SM FEW014
     FM240300 28009KT P6SM BKN200
     FM240500 27008KT P6SM OVC015
     FM241800 25005KT P6SM FEW015 SCT100
     FM242100 26012KT P6SM OVC050=

USA.gov is the U.S. government's official web portal to all federal, state and local government web resources and services.